Time,TemperatureF,DewpointF,PressureIn,WindDirection,WindDirectionDegrees,WindSpeedMPH,WindSpeedGustMPH,Humidity,HourlyPrecipIn,Conditions,Clouds,dailyrainin,SoftwareType,DateUTC
2013-09-07 00:02:00,66.9,38.0,29.61,North,0,1.0,-999.0,35,-99.99,,,0.00,weatherlink.com 1.10,2013-09-07 06:02:00,
2013-09-07 00:17:00,67.9,34.0,29.62,North,0,0.0,-999.0,29,-99.99,,,0.00,weatherlink.com 1.10,2013-09-07 06:17:00,
2013-09-07 00:32:00,67.8,36.0,29.61,North,0,0.0,-999.0,31,-99.99,,,0.00,weatherlink.com 1.10,2013-09-07 06:32:00,
2013-09-07 00:47:00,66.0,37.0,29.61,North,0,2.0,-999.0,34,-99.99,,,0.00,weatherlink.com 1.10,2013-09-07 06:47:00,
2013-09-07 01:02:00,64.0,36.0,29.62,North,0,0.0,-999.0,36,-99.99,,,0.00,weatherlink.com 1.10,2013-09-07 07:02:00,
2013-09-07 01:17:00,62.9,37.0,29.64,North,0,0.0,-999.0,39,-99.99,,,0.00,weatherlink.com 1.10,2013-09-07 07:17:00,
2013-09-07 01:32:00,63.2,38.0,29.64,North,0,3.0,-999.0,39,-99.99,,,0.00,weatherlink.com 1.10,2013-09-07 07:32:00,
2013-09-07 01:47:00,63.9,38.0,29.65,North,0,0.0,-999.0,39,-99.99,,,0.00,weatherlink.com 1.10,2013-09-07 07:47:00,
2013-09-07 02:02:00,63.2,37.0,29.64,North,0,0.0,-999.0,38,-99.99,,,0.00,weatherlink.com 1.10,2013-09-07 08:02:00,
2013-09-07 02:17:00,64.0,36.0,29.65,NNE,32,0.0,-999.0,36,-99.99,,,0.00,weatherlink.com 1.10,2013-09-07 08:17:00,
2013-09-07 02:32:00,64.0,37.0,29.64,NNE,20,4.0,-999.0,37,-99.99,,,0.00,weatherlink.com 1.10,2013-09-07 08:32:00,
2013-09-07 02:47:00,62.9,38.0,29.63,NNE,20,0.0,-999.0,40,-99.99,,,0.00,weatherlink.com 1.10,2013-09-07 08:47:00,
2013-09-07 03:02:00,63.2,38.0,29.63,NNE,20,3.0,-999.0,39,-99.99,,,0.00,weatherlink.com 1.10,2013-09-07 09:02:00,
2013-09-07 03:17:00,62.6,38.0,29.63,NNE,20,0.0,-999.0,40,-99.99,,,0.00,weatherlink.com 1.10,2013-09-07 09:17:00,
2013-09-07 03:32:00,61.6,39.0,29.63,NNE,20,0.0,-999.0,43,-99.99,,,0.00,weatherlink.com 1.10,2013-09-07 09:32:00,
2013-09-07 03:47:00,61.0,39.0,29.63,NNE,20,0.0,-999.0,44,-99.99,,,0.00,weatherlink.com 1.10,2013-09-07 09:47:00,
2013-09-07 04:02:00,59.9,39.0,29.64,NNE,20,0.0,-999.0,47,-99.99,,,0.00,weatherlink.com 1.10,2013-09-07 10:02:00,
2013-09-07 04:17:00,59.5,40.0,29.63,NE,37,0.0,-999.0,48,-99.99,,,0.00,weatherlink.com 1.10,2013-09-07 10:17:00,
2013-09-07 04:32:00,60.5,39.0,29.63,NE,37,1.0,-999.0,46,-99.99,,,0.00,weatherlink.com 1.10,2013-09-07 10:32:00,
2013-09-07 04:47:00,59.5,40.0,29.64,NE,37,3.0,-999.0,48,-99.99,,,0.00,weatherlink.com 1.10,2013-09-07 10:47:00,
2013-09-07 05:02:00,59.3,40.0,29.64,NNE,19,5.0,-999.0,50,-99.99,,,0.00,weatherlink.com 1.10,2013-09-07 11:02:00,
2013-09-07 05:17:00,58.7,40.0,29.64,NNE,19,3.0,-999.0,51,-99.99,,,0.00,weatherlink.com 1.10,2013-09-07 11:17:00,
2013-09-07 05:32:00,58.6,41.0,29.65,NNE,19,0.0,-999.0,52,-99.99,,,0.00,weatherlink.com 1.10,2013-09-07 11:32:00,
2013-09-07 05:48:00,58.0,41.0,29.66,NNE,19,0.0,-999.0,53,-99.99,,,0.00,weatherlink.com 1.10,2013-09-07 11:48:00,
2013-09-07 06:02:00,57.5,41.0,29.66,NNE,19,0.0,-999.0,55,-99.99,,,0.00,weatherlink.com 1.10,2013-09-07 12:02:00,
2013-09-07 06:19:00,56.6,40.0,29.68,NNE,19,4.0,-999.0,55,-99.99,,,0.00,weatherlink.com 1.10,2013-09-07 12:19:00,
2013-09-07 06:33:00,56.6,40.0,29.68,NNE,19,3.0,-999.0,55,-99.99,,,0.00,weatherlink.com 1.10,2013-09-07 12:33:00,
2013-09-07 06:48:00,57.0,41.0,29.70,NNE,19,0.0,-999.0,55,-99.99,,,0.00,weatherlink.com 1.10,2013-09-07 12:48:00,
2013-09-07 07:03:00,58.6,40.0,29.69,NNE,12,4.0,-999.0,51,-99.99,,,0.00,weatherlink.com 1.10,2013-09-07 13:03:00,
2013-09-07 07:19:00,61.3,40.0,29.69,North,0,7.0,-999.0,46,-99.99,,,0.00,weatherlink.com 1.10,2013-09-07 13:19:00,
2013-09-07 07:33:00,62.3,41.0,29.69,North,0,0.0,-999.0,46,-99.99,,,0.00,weatherlink.com 1.10,2013-09-07 13:33:00,
2013-09-07 07:48:00,66.4,40.0,29.70,NNE,17,4.0,-999.0,38,-99.99,,,0.00,weatherlink.com 1.10,2013-09-07 13:48:00,
2013-09-07 08:04:00,69.1,42.0,29.68,NNE,23,6.0,-999.0,38,-99.99,,,0.00,weatherlink.com 1.10,2013-09-07 14:04:00,
2013-09-07 08:19:00,72.0,43.0,29.67,NE,40,2.0,-999.0,35,-99.99,,,0.00,weatherlink.com 1.10,2013-09-07 14:19:00,
2013-09-07 08:34:00,74.4,39.0,29.70,East,94,4.0,-999.0,28,-99.99,,,0.00,weatherlink.com 1.10,2013-09-07 14:34:00,
2013-09-07 08:49:00,75.1,40.0,29.69,ENE,60,4.0,-999.0,28,-99.99,,,0.00,weatherlink.com 1.10,2013-09-07 14:49:00,
2013-09-07 09:05:00,76.0,41.0,29.68,ENE,69,4.0,-999.0,28,-99.99,,,0.00,weatherlink.com 1.10,2013-09-07 15:05:00,
2013-09-07 09:18:00,76.8,40.0,29.68,ENE,68,7.0,-999.0,27,-99.99,,,0.00,weatherlink.com 1.10,2013-09-07 15:18:00,
2013-09-07 09:34:00,77.7,41.0,29.71,ENE,76,7.0,-999.0,27,-99.99,,,0.00,weatherlink.com 1.10,2013-09-07 15:34:00,
2013-09-07 09:49:00,78.6,42.0,29.71,ENE,70,4.0,-999.0,27,-99.99,,,0.00,weatherlink.com 1.10,2013-09-07 15:49:00,
2013-09-07 10:04:00,80.3,42.0,29.70,NNE,32,6.0,-999.0,26,-99.99,,,0.00,weatherlink.com 1.10,2013-09-07 16:04:00,
2013-09-07 10:19:00,81.6,43.0,29.70,ESE,115,5.0,-999.0,26,-99.99,,,0.00,weatherlink.com 1.10,2013-09-07 16:19:00,
2013-09-07 10:35:00,81.8,43.0,29.70,East,81,5.0,-999.0,25,-99.99,,,0.00,weatherlink.com 1.10,2013-09-07 16:35:00,
2013-09-07 10:50:00,82.6,42.0,29.70,ENE,75,6.0,-999.0,24,-99.99,,,0.00,weatherlink.com 1.10,2013-09-07 16:50:00,
2013-09-07 11:05:00,83.8,43.0,29.68,East,101,5.0,-999.0,24,-99.99,,,0.00,weatherlink.com 1.10,2013-09-07 17:05:00,
2013-09-07 11:21:00,84.0,43.0,29.68,ESE,103,2.0,-999.0,24,-99.99,,,0.00,weatherlink.com 1.10,2013-09-07 17:21:00,
2013-09-07 11:36:00,85.7,44.0,29.65,ESE,115,4.0,-999.0,23,-99.99,,,0.00,weatherlink.com 1.10,2013-09-07 17:36:00,
2013-09-07 11:50:00,85.7,44.0,29.65,SE,124,4.0,-999.0,23,-99.99,,,0.00,weatherlink.com 1.10,2013-09-07 17:50:00,
2013-09-07 12:05:00,86.5,41.0,29.63,ESE,116,5.0,-999.0,20,-99.99,,,0.00,weatherlink.com 1.10,2013-09-07 18:05:00,
2013-09-07 12:20:00,87.2,43.0,29.62,East,83,9.0,-999.0,21,-99.99,,,0.00,weatherlink.com 1.10,2013-09-07 18:20:00,
2013-09-07 12:36:00,88.4,43.0,29.65,East,97,11.0,-999.0,20,-99.99,,,0.00,weatherlink.com 1.10,2013-09-07 18:36:00,
2013-09-07 12:51:00,88.0,42.0,29.64,SSE,151,3.0,-999.0,20,-99.99,,,0.00,weatherlink.com 1.10,2013-09-07 18:51:00,
2013-09-07 13:06:00,89.3,41.0,29.62,SE,137,2.0,-999.0,18,-99.99,,,0.00,weatherlink.com 1.10,2013-09-07 19:06:00,
2013-09-07 13:22:00,89.9,41.0,29.62,SSE,147,6.0,-999.0,18,-99.99,,,0.00,weatherlink.com 1.10,2013-09-07 19:22:00,
2013-09-07 13:36:00,89.0,40.0,29.62,SE,126,6.0,-999.0,18,-99.99,,,0.00,weatherlink.com 1.10,2013-09-07 19:36:00,
2013-09-07 13:51:00,89.9,40.0,29.61,SSE,162,4.0,-999.0,17,-99.99,,,0.00,weatherlink.com 1.10,2013-09-07 19:51:00,
2013-09-07 14:07:00,89.7,39.0,29.60,WSW,240,2.0,-999.0,17,-99.99,,,0.00,weatherlink.com 1.10,2013-09-07 20:07:00,
2013-09-07 14:22:00,89.3,41.0,29.60,South,180,5.0,-999.0,18,-99.99,,,0.00,weatherlink.com 1.10,2013-09-07 20:22:00,
2013-09-07 14:37:00,90.7,40.0,29.59,ENE,63,0.0,-999.0,17,-99.99,,,0.00,weatherlink.com 1.10,2013-09-07 20:37:00,
2013-09-07 15:08:00,91.6,41.0,29.57,East,101,3.0,-999.0,17,-99.99,,,0.00,weatherlink.com 1.10,2013-09-07 21:08:00,
2013-09-07 15:21:00,91.4,39.0,29.56,SW,219,3.0,-999.0,16,-99.99,,,0.00,weatherlink.com 1.10,2013-09-07 21:21:00,
2013-09-07 15:37:00,91.8,40.0,29.56,SSE,149,10.0,-999.0,16,-99.99,,,0.00,weatherlink.com 1.10,2013-09-07 21:37:00,
2013-09-07 15:52:00,88.4,40.0,29.58,NNE,21,0.0,-999.0,18,-99.99,,,0.00,weatherlink.com 1.10,2013-09-07 21:52:00,
2013-09-07 16:07:00,90.7,40.0,29.56,SW,221,3.0,-999.0,17,-99.99,,,0.00,weatherlink.com 1.10,2013-09-07 22:07:00,
2013-09-07 16:23:00,91.0,39.0,29.56,SSW,212,0.0,-999.0,16,-99.99,,,0.00,weatherlink.com 1.10,2013-09-07 22:23:00,
2013-09-07 16:38:00,91.0,39.0,29.55,SSE,154,0.0,-999.0,16,-99.99,,,0.00,weatherlink.com 1.10,2013-09-07 22:38:00,
2013-09-07 16:52:00,89.9,40.0,29.56,ESE,102,4.0,-999.0,17,-99.99,,,0.00,weatherlink.com 1.10,2013-09-07 22:52:00,
2013-09-07 17:07:00,91.0,37.0,29.55,SW,221,3.0,-999.0,15,-99.99,,,0.00,weatherlink.com 1.10,2013-09-07 23:07:00,
2013-09-07 17:22:00,90.7,39.0,29.55,South,177,0.0,-999.0,16,-99.99,,,0.00,weatherlink.com 1.10,2013-09-07 23:22:00,
2013-09-07 17:39:00,89.7,36.0,29.57,SSE,153,0.0,-999.0,15,-99.99,,,0.00,weatherlink.com 1.10,2013-09-07 23:39:00,
2013-09-07 17:52:00,89.7,38.0,29.56,SSE,153,5.0,-999.0,16,-99.99,,,0.00,weatherlink.com 1.10,2013-09-07 23:52:00,
2013-09-07 18:07:00,88.8,36.0,29.56,SE,141,3.0,-999.0,15,-99.99,,,0.00,weatherlink.com 1.10,2013-09-08 00:07:00,
2013-09-07 18:24:00,88.4,37.0,29.55,SSW,212,0.0,-999.0,16,-99.99,,,0.00,weatherlink.com 1.10,2013-09-08 00:24:00,
2013-09-07 18:38:00,87.8,36.0,29.54,SSE,155,3.0,-999.0,16,-99.99,,,0.00,weatherlink.com 1.10,2013-09-08 00:38:00,
2013-09-07 18:54:00,87.2,37.0,29.54,SSE,162,0.0,-999.0,17,-99.99,,,0.00,weatherlink.com 1.10,2013-09-08 00:54:00,
2013-09-07 19:09:00,85.7,38.0,29.55,South,191,0.0,-999.0,18,-99.99,,,0.00,weatherlink.com 1.10,2013-09-08 01:09:00,
2013-09-07 19:24:00,84.0,41.0,29.55,SW,226,6.0,-999.0,22,-99.99,,,0.00,weatherlink.com 1.10,2013-09-08 01:24:00,
2013-09-07 19:39:00,81.8,43.0,29.52,SSW,200,2.0,-999.0,25,-99.99,,,0.00,weatherlink.com 1.10,2013-09-08 01:39:00,
2013-09-07 19:54:00,80.7,43.0,29.53,SSW,198,0.0,-999.0,26,-99.99,,,0.00,weatherlink.com 1.10,2013-09-08 01:54:00,
2013-09-07 20:09:00,79.8,44.0,29.54,SSW,200,6.0,-999.0,28,-99.99,,,0.00,weatherlink.com 1.10,2013-09-08 02:09:00,
2013-09-07 20:24:00,79.2,42.0,29.54,SW,215,0.0,-999.0,27,-99.99,,,0.00,weatherlink.com 1.10,2013-09-08 02:24:00,
2013-09-07 20:39:00,79.0,44.0,29.53,SSW,195,3.0,-999.0,29,-99.99,,,0.00,weatherlink.com 1.10,2013-09-08 02:39:00,
2013-09-07 20:54:00,78.5,45.0,29.54,SW,226,3.0,-999.0,30,-99.99,,,0.00,weatherlink.com 1.10,2013-09-08 02:54:00,
2013-09-07 21:09:00,77.7,45.0,29.57,SW,220,0.0,-999.0,31,-99.99,,,0.00,weatherlink.com 1.10,2013-09-08 03:09:00,
2013-09-07 21:24:00,77.6,45.0,29.57,SW,220,0.0,-999.0,31,-99.99,,,0.00,weatherlink.com 1.10,2013-09-08 03:24:00,
2013-09-07 21:39:00,77.6,44.0,29.54,West,260,2.0,-999.0,30,-99.99,,,0.00,weatherlink.com 1.10,2013-09-08 03:39:00,
2013-09-07 21:54:00,76.8,45.0,29.56,West,265,4.0,-999.0,32,-99.99,,,0.00,weatherlink.com 1.10,2013-09-08 03:54:00,
2013-09-07 22:09:00,75.4,45.0,29.57,West,261,5.0,-999.0,34,-99.99,,,0.00,weatherlink.com 1.10,2013-09-08 04:09:00,
2013-09-07 22:24:00,74.7,45.0,29.58,West,261,0.0,-999.0,35,-99.99,,,0.00,weatherlink.com 1.10,2013-09-08 04:24:00,
2013-09-07 22:39:00,73.7,45.0,29.58,West,261,0.0,-999.0,36,-99.99,,,0.00,weatherlink.com 1.10,2013-09-08 04:39:00,
2013-09-07 22:54:00,73.9,45.0,29.58,West,261,0.0,-999.0,35,-99.99,,,0.00,weatherlink.com 1.10,2013-09-08 04:54:00,
2013-09-07 23:09:00,73.5,45.0,29.57,West,261,0.0,-999.0,36,-99.99,,,0.00,weatherlink.com 1.10,2013-09-08 05:09:00,
2013-09-07 23:24:00,72.3,45.0,29.59,West,261,0.0,-999.0,38,-99.99,,,0.00,weatherlink.com 1.10,2013-09-08 05:24:00,
2013-09-07 23:39:00,71.5,45.0,29.59,West,261,0.0,-999.0,39,-99.99,,,0.00,weatherlink.com 1.10,2013-09-08 05:39:00,
2013-09-07 23:54:00,71.5,45.0,29.59,West,261,0.0,-999.0,39,-99.99,,,0.00,weatherlink.com 1.10,2013-09-08 05:54:00,